createdAt,value
2022-11-14T00:00:50.432Z,7.86
2022-11-14T00:10:52.289Z,7.56
2022-11-14T00:20:54.061Z,7.46
2022-11-14T00:30:55.363Z,7.35
2022-11-14T00:40:56.694Z,7.31
2022-11-14T00:50:58.076Z,7.27
2022-11-14T01:00:59.649Z,7.17
2022-11-14T01:11:01.090Z,7.11
2022-11-14T01:21:06.470Z,6.94
2022-11-14T01:31:12.233Z,6.79
2022-11-14T01:41:15.856Z,6.70
2022-11-14T01:51:31.409Z,6.59
2022-11-14T02:01:35.894Z,6.49
2022-11-14T02:11:42.212Z,6.41
2022-11-14T02:21:43.570Z,6.22
2022-11-14T02:31:44.904Z,6.18
2022-11-14T02:41:46.297Z,6.06
2022-11-14T02:51:47.638Z,5.94
2022-11-14T03:01:49.045Z,5.79
2022-11-14T03:11:50.389Z,5.70
2022-11-14T03:21:51.889Z,5.53
2022-11-14T03:31:53.350Z,5.45
2022-11-14T03:41:54.671Z,5.50
2022-11-14T03:51:55.996Z,5.33
2022-11-14T04:01:57.319Z,5.32
2022-11-14T04:11:58.663Z,5.25
2022-11-14T04:22:00.024Z,5.19
2022-11-14T04:32:01.367Z,5.32
2022-11-14T04:42:02.714Z,5.16
2022-11-14T04:52:04.230Z,5.03
2022-11-14T05:02:05.587Z,5.04
2022-11-14T05:12:07.025Z,4.90
2022-11-14T05:22:08.356Z,4.83
2022-11-14T05:32:13.699Z,4.73
2022-11-14T05:42:17.517Z,4.76
2022-11-14T05:52:18.849Z,4.77
2022-11-14T06:02:20.331Z,4.66
2022-11-14T06:12:21.656Z,4.50
2022-11-14T06:22:23.055Z,4.47
2022-11-14T06:32:24.391Z,4.48
2022-11-14T06:42:25.708Z,4.49
2022-11-14T06:52:27.255Z,4.60
2022-11-14T07:02:28.589Z,4.45
2022-11-14T07:12:29.974Z,4.54
2022-11-14T07:22:31.327Z,4.76
2022-11-14T07:32:32.703Z,4.66
2022-11-14T07:42:34.063Z,4.68
2022-11-14T07:52:35.454Z,4.69
2022-11-14T08:02:36.818Z,4.70
2022-11-14T08:12:39.368Z,4.82
2022-11-14T08:22:40.680Z,4.92
2022-11-14T08:32:41.991Z,5.02
2022-11-14T08:42:43.344Z,5.13
2022-11-14T08:52:50.915Z,5.33
2022-11-14T09:02:52.368Z,5.83
2022-11-14T09:13:00.128Z,6.27
2022-11-14T09:23:02.373Z,6.68
2022-11-14T09:33:11.121Z,7.04
2022-11-14T09:43:50.746Z,7.31
2022-11-14T09:53:56.075Z,7.67
2022-11-14T10:04:09.664Z,7.79
2022-11-14T10:14:37.931Z,7.98
2022-11-14T10:24:51.353Z,8.15
2022-11-14T10:35:01.627Z,8.26
2022-11-14T10:45:10.691Z,8.44
2022-11-14T10:55:17.609Z,8.40
2022-11-14T11:05:22.263Z,8.46
2022-11-14T11:15:30.253Z,8.56
2022-11-14T11:25:33.513Z,8.58
2022-11-14T11:35:35.405Z,8.81
2022-11-14T11:45:37.776Z,9.00
2022-11-14T11:56:01.052Z,9.21
2022-11-14T12:06:13.874Z,9.37
2022-11-14T12:16:25.828Z,9.47
2022-11-14T12:27:06.423Z,9.49
2022-11-14T12:37:14.955Z,9.72
2022-11-14T12:47:22.165Z,9.83
2022-11-14T12:57:47.665Z,9.97
2022-11-14T13:07:56.408Z,10.03
2022-11-14T13:18:31.809Z,10.03
2022-11-14T13:28:35.972Z,10.03
2022-11-14T13:38:59.952Z,10.12
2022-11-14T13:49:19.998Z,10.17
2022-11-14T13:59:49.191Z,10.18
2022-11-14T14:10:29.866Z,10.18
2022-11-14T14:20:33.906Z,10.16
2022-11-14T14:30:35.294Z,10.19
2022-11-14T14:40:40.067Z,10.17
2022-11-14T14:50:48.049Z,10.18
2022-11-14T15:01:20.419Z,10.13
2022-11-14T15:11:22.465Z,10.10
2022-11-14T15:21:29.505Z,10.05
2022-11-14T15:31:30.923Z,10.06
2022-11-14T15:41:33.503Z,10.01
2022-11-14T15:51:48.291Z,9.99
2022-11-14T16:01:54.916Z,10.03
2022-11-14T16:11:56.419Z,9.97
2022-11-14T16:22:02.859Z,9.93
2022-11-14T16:32:04.563Z,9.93
2022-11-14T16:42:07.155Z,9.92
2022-11-14T16:52:10.734Z,9.90
2022-11-14T17:02:15.485Z,9.83
2022-11-14T17:12:16.873Z,9.86
2022-11-14T17:22:19.681Z,9.81
2022-11-14T17:32:20.998Z,9.81
2022-11-14T17:42:22.399Z,9.77
2022-11-14T17:52:23.744Z,9.76
2022-11-14T18:02:25.105Z,9.74
2022-11-14T18:12:26.476Z,9.74
2022-11-14T18:22:28.362Z,9.69
2022-11-14T18:32:29.761Z,9.65
2022-11-14T18:42:31.088Z,9.65
2022-11-14T18:52:32.501Z,9.59
2022-11-14T19:02:33.952Z,9.54
2022-11-14T19:12:35.375Z,9.46
2022-11-14T19:22:36.689Z,9.40
2022-11-14T19:32:38.026Z,9.39
2022-11-14T19:42:39.387Z,9.22
2022-11-14T19:52:40.707Z,9.08
2022-11-14T20:02:45.867Z,8.86
2022-11-14T20:12:47.205Z,8.74
2022-11-14T20:22:48.624Z,8.57
2022-11-14T20:32:49.961Z,8.42
2022-11-14T20:42:51.329Z,8.29
2022-11-14T20:52:52.678Z,8.35
2022-11-14T21:02:54.777Z,8.37
2022-11-14T21:13:22.263Z,8.46
2022-11-14T21:23:23.608Z,8.51
2022-11-14T21:33:29.543Z,8.55
2022-11-14T21:43:31.871Z,8.65
2022-11-14T21:53:34.738Z,8.70
2022-11-14T22:03:55.672Z,8.78
2022-11-14T22:13:58.120Z,8.76
2022-11-14T22:23:59.596Z,8.84
2022-11-14T22:34:00.988Z,8.93
2022-11-14T22:44:02.380Z,9.06
2022-11-14T22:54:03.879Z,9.17
2022-11-14T23:04:05.370Z,9.21
2022-11-14T23:14:06.777Z,9.26
2022-11-14T23:24:13.510Z,9.42
2022-11-14T23:34:14.847Z,9.48
2022-11-14T23:44:16.215Z,9.64
2022-11-14T23:54:17.547Z,9.65
